sensor_id;sensor_type;location;lat;lon;timestamp;P1;durP1;ratioP1;P2;durP2;ratioP2
37297;SDS011;30517;51.932;4.278;2023-10-13T00:00:38;4.35;;;1.90;;
37297;SDS011;30517;51.932;4.278;2023-10-13T00:03:39;5.95;;;1.85;;
37297;SDS011;30517;51.932;4.278;2023-10-13T00:06:38;3.70;;;1.58;;
37297;SDS011;30517;51.932;4.278;2023-10-13T00:09:38;4.85;;;2.00;;
37297;SDS011;30517;51.932;4.278;2023-10-13T00:12:38;4.20;;;1.88;;
37297;SDS011;30517;51.932;4.278;2023-10-13T00:15:47;4.13;;;1.90;;
37297;SDS011;30517;51.932;4.278;2023-10-13T00:18:57;3.78;;;1.80;;
37297;SDS011;30517;51.932;4.278;2023-10-13T00:21:56;4.00;;;1.98;;
37297;SDS011;30517;51.932;4.278;2023-10-13T00:25:07;4.68;;;2.10;;
37297;SDS011;30517;51.932;4.278;2023-10-13T00:28:17;4.50;;;2.15;;
37297;SDS011;30517;51.932;4.278;2023-10-13T00:34:21;3.78;;;1.85;;
37297;SDS011;30517;51.932;4.278;2023-10-13T00:37:27;4.93;;;2.30;;
37297;SDS011;30517;51.932;4.278;2023-10-13T00:40:27;4.20;;;1.95;;
37297;SDS011;30517;51.932;4.278;2023-10-13T00:43:30;5.13;;;2.30;;
37297;SDS011;30517;51.932;4.278;2023-10-13T00:46:34;5.65;;;2.70;;
37297;SDS011;30517;51.932;4.278;2023-10-13T00:49:36;6.85;;;2.72;;
37297;SDS011;30517;51.932;4.278;2023-10-13T00:52:38;5.70;;;2.92;;
37297;SDS011;30517;51.932;4.278;2023-10-13T00:55:40;5.18;;;2.67;;
37297;SDS011;30517;51.932;4.278;2023-10-13T00:58:43;5.10;;;2.58;;
37297;SDS011;30517;51.932;4.278;2023-10-13T01:01:42;6.00;;;2.80;;
37297;SDS011;30517;51.932;4.278;2023-10-13T01:04:42;5.28;;;2.47;;
37297;SDS011;30517;51.932;4.278;2023-10-13T01:07:45;5.68;;;2.63;;
37297;SDS011;30517;51.932;4.278;2023-10-13T01:10:51;5.78;;;2.92;;
37297;SDS011;30517;51.932;4.278;2023-10-13T01:13:52;5.50;;;3.20;;
37297;SDS011;30517;51.932;4.278;2023-10-13T01:16:51;5.65;;;2.63;;
37297;SDS011;30517;51.932;4.278;2023-10-13T01:19:51;4.63;;;2.60;;
37297;SDS011;30517;51.932;4.278;2023-10-13T01:22:57;5.30;;;3.20;;
37297;SDS011;30517;51.932;4.278;2023-10-13T01:25:56;5.43;;;2.80;;
37297;SDS011;30517;51.932;4.278;2023-10-13T01:28:59;6.78;;;3.03;;
37297;SDS011;30517;51.932;4.278;2023-10-13T01:31:58;5.85;;;3.03;;
37297;SDS011;30517;51.932;4.278;2023-10-13T01:34:58;5.53;;;2.65;;
37297;SDS011;30517;51.932;4.278;2023-10-13T01:38:04;5.90;;;2.78;;
37297;SDS011;30517;51.932;4.278;2023-10-13T01:41:07;6.13;;;2.90;;
37297;SDS011;30517;51.932;4.278;2023-10-13T01:44:07;6.20;;;2.70;;
37297;SDS011;30517;51.932;4.278;2023-10-13T01:47:10;5.65;;;2.40;;
37297;SDS011;30517;51.932;4.278;2023-10-13T01:50:11;5.45;;;2.55;;
37297;SDS011;30517;51.932;4.278;2023-10-13T01:53:19;5.30;;;2.55;;
37297;SDS011;30517;51.932;4.278;2023-10-13T01:56:19;5.03;;;3.17;;
37297;SDS011;30517;51.932;4.278;2023-10-13T01:59:21;6.65;;;3.28;;
37297;SDS011;30517;51.932;4.278;2023-10-13T02:02:21;5.30;;;2.85;;
37297;SDS011;30517;51.932;4.278;2023-10-13T02:05:30;5.50;;;2.63;;
37297;SDS011;30517;51.932;4.278;2023-10-13T02:08:35;4.47;;;2.70;;
37297;SDS011;30517;51.932;4.278;2023-10-13T02:11:42;5.07;;;2.67;;
37297;SDS011;30517;51.932;4.278;2023-10-13T02:14:46;4.47;;;2.30;;
37297;SDS011;30517;51.932;4.278;2023-10-13T02:17:45;5.32;;;2.90;;
37297;SDS011;30517;51.932;4.278;2023-10-13T02:23:53;6.82;;;3.30;;
37297;SDS011;30517;51.932;4.278;2023-10-13T02:27:03;8.32;;;2.85;;
37297;SDS011;30517;51.932;4.278;2023-10-13T02:30:08;6.18;;;3.08;;
37297;SDS011;30517;51.932;4.278;2023-10-13T02:33:14;4.95;;;2.55;;
37297;SDS011;30517;51.932;4.278;2023-10-13T02:36:19;4.70;;;2.70;;
37297;SDS011;30517;51.932;4.278;2023-10-13T02:39:37;4.60;;;2.33;;
37297;SDS011;30517;51.932;4.278;2023-10-13T02:42:43;4.00;;;2.35;;
37297;SDS011;30517;51.932;4.278;2023-10-13T02:45:51;5.50;;;2.95;;
37297;SDS011;30517;51.932;4.278;2023-10-13T02:48:56;4.70;;;2.73;;
37297;SDS011;30517;51.932;4.278;2023-10-13T02:51:56;4.18;;;2.25;;
37297;SDS011;30517;51.932;4.278;2023-10-13T02:54:58;4.85;;;2.58;;
37297;SDS011;30517;51.932;4.278;2023-10-13T02:57:58;4.60;;;2.33;;
37297;SDS011;30517;51.932;4.278;2023-10-13T03:00:57;5.50;;;2.30;;
37297;SDS011;30517;51.932;4.278;2023-10-13T03:03:57;4.80;;;2.40;;
37297;SDS011;30517;51.932;4.278;2023-10-13T03:06:57;5.00;;;2.55;;
37297;SDS011;30517;51.932;4.278;2023-10-13T03:09:58;4.60;;;2.58;;
37297;SDS011;30517;51.932;4.278;2023-10-13T03:12:59;4.57;;;2.53;;
37297;SDS011;30517;51.932;4.278;2023-10-13T03:16:00;4.43;;;2.22;;
37297;SDS011;30517;51.932;4.278;2023-10-13T03:19:01;3.63;;;1.95;;
37297;SDS011;30517;51.932;4.278;2023-10-13T03:22:07;3.75;;;2.05;;
37297;SDS011;30517;51.932;4.278;2023-10-13T03:25:14;5.50;;;2.42;;
37297;SDS011;30517;51.932;4.278;2023-10-13T03:28:27;4.25;;;2.15;;
37297;SDS011;30517;51.932;4.278;2023-10-13T03:31:32;4.45;;;2.05;;
37297;SDS011;30517;51.932;4.278;2023-10-13T03:34:35;4.97;;;2.22;;
37297;SDS011;30517;51.932;4.278;2023-10-13T03:37:39;3.58;;;1.65;;
37297;SDS011;30517;51.932;4.278;2023-10-13T03:40:39;3.50;;;1.75;;
37297;SDS011;30517;51.932;4.278;2023-10-13T03:43:47;4.15;;;1.90;;
37297;SDS011;30517;51.932;4.278;2023-10-13T03:46:50;3.72;;;2.05;;
37297;SDS011;30517;51.932;4.278;2023-10-13T03:49:53;3.88;;;2.05;;
37297;SDS011;30517;51.932;4.278;2023-10-13T03:53:13;4.35;;;1.95;;
37297;SDS011;30517;51.932;4.278;2023-10-13T03:56:13;3.40;;;1.77;;
37297;SDS011;30517;51.932;4.278;2023-10-13T03:59:25;4.00;;;2.10;;
37297;SDS011;30517;51.932;4.278;2023-10-13T04:02:33;3.55;;;1.70;;
37297;SDS011;30517;51.932;4.278;2023-10-13T04:05:35;4.03;;;2.20;;
37297;SDS011;30517;51.932;4.278;2023-10-13T04:08:39;5.05;;;2.00;;
37297;SDS011;30517;51.932;4.278;2023-10-13T04:11:41;3.72;;;1.98;;
37297;SDS011;30517;51.932;4.278;2023-10-13T04:14:59;4.22;;;2.03;;
37297;SDS011;30517;51.932;4.278;2023-10-13T04:18:05;4.47;;;2.22;;
37297;SDS011;30517;51.932;4.278;2023-10-13T04:21:17;4.57;;;2.42;;
37297;SDS011;30517;51.932;4.278;2023-10-13T04:24:55;4.10;;;1.95;;
37297;SDS011;30517;51.932;4.278;2023-10-13T04:28:20;6.75;;;2.58;;
37297;SDS011;30517;51.932;4.278;2023-10-13T04:31:26;4.07;;;2.28;;
37297;SDS011;30517;51.932;4.278;2023-10-13T04:34:45;4.35;;;2.00;;
37297;SDS011;30517;51.932;4.278;2023-10-13T04:37:45;5.63;;;2.72;;
37297;SDS011;30517;51.932;4.278;2023-10-13T04:41:00;5.45;;;2.58;;
37297;SDS011;30517;51.932;4.278;2023-10-13T04:44:00;5.07;;;2.65;;
37297;SDS011;30517;51.932;4.278;2023-10-13T04:47:19;4.80;;;2.70;;
37297;SDS011;30517;51.932;4.278;2023-10-13T04:50:20;5.65;;;2.70;;
37297;SDS011;30517;51.932;4.278;2023-10-13T04:53:33;4.97;;;2.65;;
37297;SDS011;30517;51.932;4.278;2023-10-13T04:56:33;4.75;;;2.10;;
37297;SDS011;30517;51.932;4.278;2023-10-13T04:59:51;4.65;;;2.33;;
37297;SDS011;30517;51.932;4.278;2023-10-13T05:03:10;5.15;;;2.40;;
37297;SDS011;30517;51.932;4.278;2023-10-13T05:06:28;4.88;;;2.20;;
37297;SDS011;30517;51.932;4.278;2023-10-13T05:09:40;5.63;;;2.15;;
37297;SDS011;30517;51.932;4.278;2023-10-13T05:12:59;4.82;;;2.10;;
37297;SDS011;30517;51.932;4.278;2023-10-13T05:16:17;4.32;;;2.05;;
37297;SDS011;30517;51.932;4.278;2023-10-13T05:19:36;4.70;;;2.08;;
37297;SDS011;30517;51.932;4.278;2023-10-13T05:22:55;4.32;;;2.30;;
37297;SDS011;30517;51.932;4.278;2023-10-13T05:26:13;4.00;;;1.85;;
37297;SDS011;30517;51.932;4.278;2023-10-13T05:29:31;4.65;;;2.03;;
37297;SDS011;30517;51.932;4.278;2023-10-13T05:32:49;4.78;;;1.83;;
37297;SDS011;30517;51.932;4.278;2023-10-13T05:36:11;4.53;;;2.08;;
37297;SDS011;30517;51.932;4.278;2023-10-13T05:39:49;4.72;;;2.08;;
37297;SDS011;30517;51.932;4.278;2023-10-13T05:43:08;6.35;;;1.98;;
37297;SDS011;30517;51.932;4.278;2023-10-13T05:46:26;4.05;;;2.03;;
37297;SDS011;30517;51.932;4.278;2023-10-13T05:49:25;4.40;;;2.05;;
37297;SDS011;30517;51.932;4.278;2023-10-13T05:52:48;4.50;;;2.03;;
37297;SDS011;30517;51.932;4.278;2023-10-13T05:55:59;5.38;;;2.25;;
37297;SDS011;30517;51.932;4.278;2023-10-13T05:59:18;4.95;;;2.00;;
37297;SDS011;30517;51.932;4.278;2023-10-13T06:02:37;3.20;;;1.67;;
37297;SDS011;30517;51.932;4.278;2023-10-13T06:05:55;3.78;;;1.90;;
37297;SDS011;30517;51.932;4.278;2023-10-13T06:09:13;5.05;;;2.10;;
37297;SDS011;30517;51.932;4.278;2023-10-13T06:12:31;6.07;;;2.03;;
37297;SDS011;30517;51.932;4.278;2023-10-13T06:15:50;4.85;;;2.22;;
37297;SDS011;30517;51.932;4.278;2023-10-13T06:19:08;4.43;;;1.75;;
37297;SDS011;30517;51.932;4.278;2023-10-13T06:22:26;5.05;;;1.75;;
37297;SDS011;30517;51.932;4.278;2023-10-13T06:25:54;4.53;;;2.20;;
37297;SDS011;30517;51.932;4.278;2023-10-13T06:29:13;3.67;;;1.70;;
37297;SDS011;30517;51.932;4.278;2023-10-13T06:35:18;4.35;;;1.98;;
37297;SDS011;30517;51.932;4.278;2023-10-13T06:38:22;4.35;;;2.13;;
37297;SDS011;30517;51.932;4.278;2023-10-13T06:41:23;3.90;;;1.98;;
37297;SDS011;30517;51.932;4.278;2023-10-13T06:44:31;3.17;;;1.73;;
37297;SDS011;30517;51.932;4.278;2023-10-13T06:47:30;4.95;;;1.75;;
37297;SDS011;30517;51.932;4.278;2023-10-13T06:50:31;5.85;;;2.17;;
37297;SDS011;30517;51.932;4.278;2023-10-13T06:53:37;4.95;;;1.95;;
37297;SDS011;30517;51.932;4.278;2023-10-13T06:56:37;6.55;;;2.38;;
37297;SDS011;30517;51.932;4.278;2023-10-13T06:59:38;4.50;;;2.13;;
37297;SDS011;30517;51.932;4.278;2023-10-13T07:02:38;3.33;;;1.92;;
37297;SDS011;30517;51.932;4.278;2023-10-13T07:05:38;4.82;;;2.25;;
37297;SDS011;30517;51.932;4.278;2023-10-13T07:08:43;4.85;;;2.60;;
37297;SDS011;30517;51.932;4.278;2023-10-13T07:11:48;4.45;;;1.92;;
37297;SDS011;30517;51.932;4.278;2023-10-13T07:14:51;5.88;;;2.42;;
37297;SDS011;30517;51.932;4.278;2023-10-13T07:17:53;5.70;;;2.28;;
37297;SDS011;30517;51.932;4.278;2023-10-13T07:20:57;6.70;;;2.15;;
37297;SDS011;30517;51.932;4.278;2023-10-13T07:23:58;4.68;;;2.58;;
37297;SDS011;30517;51.932;4.278;2023-10-13T07:27:07;8.05;;;2.33;;
37297;SDS011;30517;51.932;4.278;2023-10-13T07:30:09;6.40;;;2.30;;
37297;SDS011;30517;51.932;4.278;2023-10-13T07:33:13;6.05;;;2.33;;
37297;SDS011;30517;51.932;4.278;2023-10-13T07:36:13;7.07;;;2.80;;
37297;SDS011;30517;51.932;4.278;2023-10-13T07:39:19;5.80;;;2.38;;
37297;SDS011;30517;51.932;4.278;2023-10-13T07:42:25;4.70;;;2.20;;
37297;SDS011;30517;51.932;4.278;2023-10-13T07:45:30;6.43;;;2.67;;
37297;SDS011;30517;51.932;4.278;2023-10-13T07:48:36;6.72;;;2.75;;
37297;SDS011;30517;51.932;4.278;2023-10-13T07:51:36;6.55;;;3.40;;
37297;SDS011;30517;51.932;4.278;2023-10-13T07:54:43;6.25;;;2.75;;
37297;SDS011;30517;51.932;4.278;2023-10-13T07:57:54;4.90;;;2.35;;
37297;SDS011;30517;51.932;4.278;2023-10-13T08:00:55;7.05;;;2.75;;
37297;SDS011;30517;51.932;4.278;2023-10-13T08:04:07;6.25;;;2.20;;
37297;SDS011;30517;51.932;4.278;2023-10-13T08:07:10;5.78;;;2.80;;
37297;SDS011;30517;51.932;4.278;2023-10-13T08:10:12;5.13;;;2.40;;
37297;SDS011;30517;51.932;4.278;2023-10-13T08:13:14;5.63;;;2.45;;
37297;SDS011;30517;51.932;4.278;2023-10-13T08:16:14;7.45;;;2.38;;
37297;SDS011;30517;51.932;4.278;2023-10-13T08:19:20;6.43;;;2.65;;
37297;SDS011;30517;51.932;4.278;2023-10-13T08:22:27;6.63;;;2.92;;
37297;SDS011;30517;51.932;4.278;2023-10-13T08:25:34;5.80;;;2.50;;
37297;SDS011;30517;51.932;4.278;2023-10-13T08:28:53;10.98;;;2.70;;
37297;SDS011;30517;51.932;4.278;2023-10-13T08:31:55;7.05;;;2.58;;
37297;SDS011;30517;51.932;4.278;2023-10-13T08:35:13;5.30;;;2.33;;
37297;SDS011;30517;51.932;4.278;2023-10-13T08:38:33;7.15;;;2.53;;
37297;SDS011;30517;51.932;4.278;2023-10-13T08:41:49;5.80;;;2.45;;
37297;SDS011;30517;51.932;4.278;2023-10-13T08:45:11;7.05;;;2.70;;
37297;SDS011;30517;51.932;4.278;2023-10-13T08:48:27;6.70;;;2.80;;
37297;SDS011;30517;51.932;4.278;2023-10-13T08:51:32;6.55;;;3.47;;
37297;SDS011;30517;51.932;4.278;2023-10-13T08:54:42;5.13;;;2.50;;
37297;SDS011;30517;51.932;4.278;2023-10-13T08:58:01;5.60;;;2.78;;
37297;SDS011;30517;51.932;4.278;2023-10-13T09:01:12;5.88;;;2.70;;
37297;SDS011;30517;51.932;4.278;2023-10-13T09:04:13;5.68;;;2.90;;
37297;SDS011;30517;51.932;4.278;2023-10-13T09:07:26;7.53;;;2.80;;
37297;SDS011;30517;51.932;4.278;2023-10-13T09:10:25;6.47;;;2.55;;
37297;SDS011;30517;51.932;4.278;2023-10-13T09:13:43;6.97;;;2.80;;
37297;SDS011;30517;51.932;4.278;2023-10-13T09:16:42;6.75;;;2.55;;
37297;SDS011;30517;51.932;4.278;2023-10-13T09:22:54;7.88;;;2.70;;
37297;SDS011;30517;51.932;4.278;2023-10-13T09:26:05;5.00;;;2.63;;
37297;SDS011;30517;51.932;4.278;2023-10-13T09:29:20;8.23;;;3.13;;
37297;SDS011;30517;51.932;4.278;2023-10-13T09:32:20;6.03;;;2.63;;
37297;SDS011;30517;51.932;4.278;2023-10-13T09:35:20;5.30;;;2.80;;
37297;SDS011;30517;51.932;4.278;2023-10-13T09:38:28;8.52;;;3.03;;
37297;SDS011;30517;51.932;4.278;2023-10-13T09:44:32;5.65;;;2.63;;
37297;SDS011;30517;51.932;4.278;2023-10-13T09:47:32;7.53;;;3.67;;
37297;SDS011;30517;51.932;4.278;2023-10-13T09:50:37;7.00;;;2.75;;
37297;SDS011;30517;51.932;4.278;2023-10-13T09:53:40;5.68;;;2.90;;
37297;SDS011;30517;51.932;4.278;2023-10-13T09:56:51;6.70;;;2.80;;
37297;SDS011;30517;51.932;4.278;2023-10-13T09:59:57;6.43;;;2.67;;
37297;SDS011;30517;51.932;4.278;2023-10-13T10:03:06;8.00;;;3.75;;
37297;SDS011;30517;51.932;4.278;2023-10-13T10:06:26;7.35;;;3.05;;
37297;SDS011;30517;51.932;4.278;2023-10-13T10:09:37;5.18;;;2.72;;
37297;SDS011;30517;51.932;4.278;2023-10-13T10:12:38;8.73;;;3.35;;
37297;SDS011;30517;51.932;4.278;2023-10-13T10:15:46;6.80;;;2.65;;
37297;SDS011;30517;51.932;4.278;2023-10-13T10:18:46;9.43;;;3.10;;
37297;SDS011;30517;51.932;4.278;2023-10-13T10:21:46;8.90;;;3.78;;
37297;SDS011;30517;51.932;4.278;2023-10-13T10:24:59;5.95;;;2.80;;
37297;SDS011;30517;51.932;4.278;2023-10-13T10:28:05;8.38;;;3.70;;
37297;SDS011;30517;51.932;4.278;2023-10-13T10:31:06;7.40;;;3.53;;
37297;SDS011;30517;51.932;4.278;2023-10-13T10:34:15;7.72;;;2.95;;
37297;SDS011;30517;51.932;4.278;2023-10-13T10:37:18;8.63;;;3.28;;
37297;SDS011;30517;51.932;4.278;2023-10-13T10:40:18;6.80;;;3.40;;
37297;SDS011;30517;51.932;4.278;2023-10-13T10:43:37;7.70;;;3.47;;
37297;SDS011;30517;51.932;4.278;2023-10-13T10:46:46;7.13;;;3.30;;
37297;SDS011;30517;51.932;4.278;2023-10-13T10:49:59;8.18;;;3.17;;
37297;SDS011;30517;51.932;4.278;2023-10-13T10:53:05;10.48;;;3.95;;
37297;SDS011;30517;51.932;4.278;2023-10-13T10:56:07;7.90;;;3.83;;
37297;SDS011;30517;51.932;4.278;2023-10-13T10:59:18;10.98;;;3.42;;
37297;SDS011;30517;51.932;4.278;2023-10-13T11:02:18;7.47;;;3.33;;
37297;SDS011;30517;51.932;4.278;2023-10-13T11:05:25;9.82;;;3.95;;
37297;SDS011;30517;51.932;4.278;2023-10-13T11:08:30;7.82;;;3.22;;
37297;SDS011;30517;51.932;4.278;2023-10-13T11:11:30;10.98;;;3.78;;
37297;SDS011;30517;51.932;4.278;2023-10-13T11:14:36;10.35;;;4.05;;
37297;SDS011;30517;51.932;4.278;2023-10-13T11:17:37;9.93;;;4.13;;
37297;SDS011;30517;51.932;4.278;2023-10-13T11:20:41;8.73;;;3.70;;
37297;SDS011;30517;51.932;4.278;2023-10-13T11:23:54;8.07;;;3.50;;
37297;SDS011;30517;51.932;4.278;2023-10-13T11:26:54;6.53;;;3.72;;
37297;SDS011;30517;51.932;4.278;2023-10-13T11:29:54;10.70;;;4.30;;
37297;SDS011;30517;51.932;4.278;2023-10-13T11:33:05;8.00;;;4.22;;
37297;SDS011;30517;51.932;4.278;2023-10-13T11:36:08;8.13;;;4.18;;
37297;SDS011;30517;51.932;4.278;2023-10-13T11:39:14;9.15;;;4.22;;
37297;SDS011;30517;51.932;4.278;2023-10-13T11:42:22;8.65;;;4.28;;
37297;SDS011;30517;51.932;4.278;2023-10-13T11:45:25;8.95;;;4.05;;
37297;SDS011;30517;51.932;4.278;2023-10-13T11:48:30;10.32;;;3.92;;
37297;SDS011;30517;51.932;4.278;2023-10-13T11:51:35;7.53;;;4.45;;
37297;SDS011;30517;51.932;4.278;2023-10-13T11:54:36;12.27;;;4.15;;
37297;SDS011;30517;51.932;4.278;2023-10-13T11:57:43;7.15;;;3.97;;
37297;SDS011;30517;51.932;4.278;2023-10-13T12:00:42;9.02;;;4.15;;
37297;SDS011;30517;51.932;4.278;2023-10-13T12:04:10;7.88;;;3.80;;
37297;SDS011;30517;51.932;4.278;2023-10-13T12:07:29;8.63;;;3.90;;
37297;SDS011;30517;51.932;4.278;2023-10-13T12:10:47;6.75;;;3.60;;
37297;SDS011;30517;51.932;4.278;2023-10-13T12:13:59;11.40;;;4.70;;
37297;SDS011;30517;51.932;4.278;2023-10-13T12:17:09;10.75;;;4.28;;
37297;SDS011;30517;51.932;4.278;2023-10-13T12:20:16;10.60;;;4.38;;
37297;SDS011;30517;51.932;4.278;2023-10-13T12:23:31;10.40;;;3.88;;
37297;SDS011;30517;51.932;4.278;2023-10-13T12:26:31;11.95;;;4.25;;
37297;SDS011;30517;51.932;4.278;2023-10-13T12:29:36;12.70;;;5.20;;
37297;SDS011;30517;51.932;4.278;2023-10-13T12:32:45;8.27;;;4.30;;
37297;SDS011;30517;51.932;4.278;2023-10-13T12:35:59;11.10;;;4.65;;
37297;SDS011;30517;51.932;4.278;2023-10-13T12:39:25;11.80;;;4.72;;
37297;SDS011;30517;51.932;4.278;2023-10-13T12:42:43;8.10;;;4.25;;
37297;SDS011;30517;51.932;4.278;2023-10-13T12:46:02;7.07;;;4.40;;
37297;SDS011;30517;51.932;4.278;2023-10-13T12:49:20;8.70;;;4.63;;
37297;SDS011;30517;51.932;4.278;2023-10-13T12:52:38;6.68;;;3.67;;
37297;SDS011;30517;51.932;4.278;2023-10-13T12:55:39;8.82;;;3.95;;
37297;SDS011;30517;51.932;4.278;2023-10-13T12:58:39;7.65;;;4.55;;
37297;SDS011;30517;51.932;4.278;2023-10-13T13:01:39;9.68;;;5.05;;
37297;SDS011;30517;51.932;4.278;2023-10-13T13:04:43;9.48;;;4.10;;
37297;SDS011;30517;51.932;4.278;2023-10-13T13:07:49;7.65;;;4.00;;
37297;SDS011;30517;51.932;4.278;2023-10-13T13:10:52;8.77;;;4.20;;
37297;SDS011;30517;51.932;4.278;2023-10-13T13:13:51;12.30;;;4.47;;
37297;SDS011;30517;51.932;4.278;2023-10-13T13:16:51;9.48;;;4.30;;
37297;SDS011;30517;51.932;4.278;2023-10-13T13:19:50;8.05;;;4.43;;
37297;SDS011;30517;51.932;4.278;2023-10-13T13:22:49;8.93;;;3.90;;
37297;SDS011;30517;51.932;4.278;2023-10-13T13:25:49;7.57;;;4.32;;
37297;SDS011;30517;51.932;4.278;2023-10-13T13:28:49;8.85;;;4.07;;
37297;SDS011;30517;51.932;4.278;2023-10-13T13:31:51;7.03;;;3.65;;
37297;SDS011;30517;51.932;4.278;2023-10-13T13:34:51;9.55;;;4.00;;
37297;SDS011;30517;51.932;4.278;2023-10-13T13:38:02;7.78;;;4.05;;
37297;SDS011;30517;51.932;4.278;2023-10-13T13:41:15;10.10;;;4.22;;
37297;SDS011;30517;51.932;4.278;2023-10-13T13:44:34;9.27;;;4.03;;
37297;SDS011;30517;51.932;4.278;2023-10-13T13:47:50;11.45;;;4.90;;
37297;SDS011;30517;51.932;4.278;2023-10-13T13:50:51;9.07;;;4.60;;
37297;SDS011;30517;51.932;4.278;2023-10-13T13:54:03;8.80;;;4.32;;
37297;SDS011;30517;51.932;4.278;2023-10-13T14:01:25;10.85;;;4.30;;
37297;SDS011;30517;51.932;4.278;2023-10-13T14:04:28;8.48;;;3.85;;
37297;SDS011;30517;51.932;4.278;2023-10-13T14:07:33;9.43;;;4.07;;
37297;SDS011;30517;51.932;4.278;2023-10-13T14:10:36;10.90;;;4.00;;
37297;SDS011;30517;51.932;4.278;2023-10-13T14:14:01;12.52;;;4.55;;
37297;SDS011;30517;51.932;4.278;2023-10-13T14:17:49;10.98;;;3.95;;
37297;SDS011;30517;51.932;4.278;2023-10-13T14:21:20;7.28;;;3.38;;
37297;SDS011;30517;51.932;4.278;2023-10-13T14:24:34;10.05;;;3.45;;
37297;SDS011;30517;51.932;4.278;2023-10-13T14:28:12;9.27;;;3.58;;
37297;SDS011;30517;51.932;4.278;2023-10-13T14:31:17;7.32;;;3.80;;
37297;SDS011;30517;51.932;4.278;2023-10-13T14:34:21;9.05;;;3.47;;
37297;SDS011;30517;51.932;4.278;2023-10-13T14:38:02;9.93;;;3.65;;
37297;SDS011;30517;51.932;4.278;2023-10-13T14:44:46;9.05;;;3.90;;
37297;SDS011;30517;51.932;4.278;2023-10-13T14:48:03;10.35;;;3.45;;
37297;SDS011;30517;51.932;4.278;2023-10-13T14:51:59;10.93;;;4.25;;
37297;SDS011;30517;51.932;4.278;2023-10-13T14:54:38;11.00;;;4.45;;
37297;SDS011;30517;51.932;4.278;2023-10-13T14:57:37;7.90;;;3.45;;
37297;SDS011;30517;51.932;4.278;2023-10-13T15:04:14;9.32;;;3.85;;
37297;SDS011;30517;51.932;4.278;2023-10-13T15:07:16;10.05;;;3.35;;
37297;SDS011;30517;51.932;4.278;2023-10-13T15:10:17;9.32;;;3.70;;
37297;SDS011;30517;51.932;4.278;2023-10-13T15:17:12;11.02;;;3.92;;
37297;SDS011;30517;51.932;4.278;2023-10-13T15:20:14;7.68;;;3.22;;
37297;SDS011;30517;51.932;4.278;2023-10-13T15:23:20;8.68;;;3.50;;
37297;SDS011;30517;51.932;4.278;2023-10-13T15:26:25;9.30;;;3.47;;
37297;SDS011;30517;51.932;4.278;2023-10-13T15:29:43;11.38;;;4.10;;
37297;SDS011;30517;51.932;4.278;2023-10-13T15:32:49;8.48;;;4.10;;
37297;SDS011;30517;51.932;4.278;2023-10-13T15:35:53;10.45;;;4.00;;
37297;SDS011;30517;51.932;4.278;2023-10-13T15:43:37;10.07;;;3.58;;
37297;SDS011;30517;51.932;4.278;2023-10-13T15:46:40;8.93;;;3.50;;
37297;SDS011;30517;51.932;4.278;2023-10-13T15:49:40;9.40;;;3.47;;
37297;SDS011;30517;51.932;4.278;2023-10-13T15:52:43;7.75;;;3.53;;
37297;SDS011;30517;51.932;4.278;2023-10-13T15:55:46;11.77;;;3.53;;
37297;SDS011;30517;51.932;4.278;2023-10-13T15:58:46;10.38;;;3.55;;
37297;SDS011;30517;51.932;4.278;2023-10-13T16:01:46;7.38;;;3.38;;
37297;SDS011;30517;51.932;4.278;2023-10-13T16:04:46;9.45;;;3.38;;
37297;SDS011;30517;51.932;4.278;2023-10-13T16:07:46;9.65;;;3.90;;
37297;SDS011;30517;51.932;4.278;2023-10-13T16:10:45;8.88;;;3.70;;
37297;SDS011;30517;51.932;4.278;2023-10-13T16:14:03;7.28;;;3.42;;
37297;SDS011;30517;51.932;4.278;2023-10-13T16:18:02;9.50;;;3.65;;
37297;SDS011;30517;51.932;4.278;2023-10-13T16:21:20;6.88;;;3.70;;
37297;SDS011;30517;51.932;4.278;2023-10-13T16:24:20;9.05;;;3.53;;
37297;SDS011;30517;51.932;4.278;2023-10-13T16:27:24;12.50;;;4.07;;
37297;SDS011;30517;51.932;4.278;2023-10-13T16:30:24;6.40;;;3.42;;
37297;SDS011;30517;51.932;4.278;2023-10-13T16:33:23;9.02;;;3.65;;
37297;SDS011;30517;51.932;4.278;2023-10-13T16:36:22;6.68;;;3.20;;
37297;SDS011;30517;51.932;4.278;2023-10-13T16:39:22;8.82;;;3.70;;
37297;SDS011;30517;51.932;4.278;2023-10-13T16:42:30;8.52;;;4.03;;
37297;SDS011;30517;51.932;4.278;2023-10-13T16:48:51;6.95;;;3.63;;
37297;SDS011;30517;51.932;4.278;2023-10-13T16:51:51;8.65;;;3.63;;
37297;SDS011;30517;51.932;4.278;2023-10-13T16:54:50;8.88;;;3.30;;
37297;SDS011;30517;51.932;4.278;2023-10-13T17:01:18;6.63;;;3.20;;
37297;SDS011;30517;51.932;4.278;2023-10-13T17:12:27;6.50;;;3.25;;
37297;SDS011;30517;51.932;4.278;2023-10-13T17:15:43;7.18;;;3.40;;
37297;SDS011;30517;51.932;4.278;2023-10-13T17:19:28;10.88;;;3.65;;
37297;SDS011;30517;51.932;4.278;2023-10-13T17:25:54;7.18;;;3.20;;
37297;SDS011;30517;51.932;4.278;2023-10-13T17:28:56;6.13;;;3.17;;
37297;SDS011;30517;51.932;4.278;2023-10-13T17:32:11;5.88;;;3.10;;
37297;SDS011;30517;51.932;4.278;2023-10-13T17:35:55;9.00;;;3.40;;
37297;SDS011;30517;51.932;4.278;2023-10-13T17:38:54;5.78;;;2.83;;
37297;SDS011;30517;51.932;4.278;2023-10-13T17:41:55;7.30;;;3.80;;
37297;SDS011;30517;51.932;4.278;2023-10-13T17:44:54;6.03;;;3.28;;
37297;SDS011;30517;51.932;4.278;2023-10-13T17:47:54;11.57;;;4.28;;
37297;SDS011;30517;51.932;4.278;2023-10-13T17:50:54;8.55;;;3.20;;
37297;SDS011;30517;51.932;4.278;2023-10-13T17:53:55;6.07;;;3.08;;
37297;SDS011;30517;51.932;4.278;2023-10-13T17:56:56;8.75;;;3.63;;
37297;SDS011;30517;51.932;4.278;2023-10-13T17:59:55;8.38;;;3.33;;
37297;SDS011;30517;51.932;4.278;2023-10-13T18:02:57;9.88;;;2.83;;
37297;SDS011;30517;51.932;4.278;2023-10-13T18:06:28;5.65;;;3.00;;
37297;SDS011;30517;51.932;4.278;2023-10-13T18:13:25;7.05;;;2.85;;
37297;SDS011;30517;51.932;4.278;2023-10-13T18:16:56;8.48;;;3.55;;
37297;SDS011;30517;51.932;4.278;2023-10-13T18:20:14;7.43;;;3.30;;
37297;SDS011;30517;51.932;4.278;2023-10-13T18:23:13;7.53;;;3.45;;
37297;SDS011;30517;51.932;4.278;2023-10-13T18:26:17;7.65;;;3.20;;
37297;SDS011;30517;51.932;4.278;2023-10-13T18:29:31;5.95;;;2.75;;
37297;SDS011;30517;51.932;4.278;2023-10-13T18:33:04;6.05;;;3.00;;
37297;SDS011;30517;51.932;4.278;2023-10-13T18:36:11;8.18;;;3.40;;
37297;SDS011;30517;51.932;4.278;2023-10-13T18:39:23;6.25;;;2.80;;
37297;SDS011;30517;51.932;4.278;2023-10-13T18:42:56;7.47;;;3.15;;
37297;SDS011;30517;51.932;4.278;2023-10-13T18:49:27;8.43;;;3.10;;
37297;SDS011;30517;51.932;4.278;2023-10-13T18:52:27;5.18;;;2.83;;
37297;SDS011;30517;51.932;4.278;2023-10-13T18:55:27;6.90;;;2.80;;
37297;SDS011;30517;51.932;4.278;2023-10-13T18:58:49;6.70;;;3.00;;
37297;SDS011;30517;51.932;4.278;2023-10-13T19:02:01;6.25;;;3.22;;
37297;SDS011;30517;51.932;4.278;2023-10-13T19:05:10;8.70;;;3.65;;
37297;SDS011;30517;51.932;4.278;2023-10-13T19:08:32;8.43;;;3.70;;
37297;SDS011;30517;51.932;4.278;2023-10-13T19:15:52;6.43;;;3.08;;
37297;SDS011;30517;51.932;4.278;2023-10-13T19:18:58;7.88;;;3.67;;
37297;SDS011;30517;51.932;4.278;2023-10-13T19:22:02;7.68;;;3.90;;
37297;SDS011;30517;51.932;4.278;2023-10-13T19:25:05;7.53;;;3.80;;
37297;SDS011;30517;51.932;4.278;2023-10-13T19:28:09;6.80;;;3.75;;
37297;SDS011;30517;51.932;4.278;2023-10-13T19:31:12;7.60;;;3.58;;
37297;SDS011;30517;51.932;4.278;2023-10-13T19:34:30;9.32;;;3.55;;
37297;SDS011;30517;51.932;4.278;2023-10-13T19:37:31;6.68;;;3.85;;
37297;SDS011;30517;51.932;4.278;2023-10-13T19:40:46;8.23;;;4.03;;
37297;SDS011;30517;51.932;4.278;2023-10-13T19:43:56;7.43;;;3.80;;
37297;SDS011;30517;51.932;4.278;2023-10-13T19:50:45;8.18;;;4.65;;
37297;SDS011;30517;51.932;4.278;2023-10-13T19:53:54;8.57;;;4.20;;
37297;SDS011;30517;51.932;4.278;2023-10-13T19:56:55;9.75;;;4.57;;